Time;durP1;ratioP1;P1;durP2;ratioP2;P2;SDS_P1;SDS_P2;PMS_P1;PMS_P2;Temp;Humidity;BMP_temperature;BMP_pressure;BME280_temperature;BME280_humidity;BME280_pressure;Samples;Min_cycle;Max_cycle;Signal;HPM_P1;HPM_P2
2023/06/17 00:01:16;;;;;;;7.50;6.63;;;;;;;14.28;100.00;100637.63;5008255;28;20133;-57
2023/06/17 00:03:43;;;;;;;5.90;4.97;;;;;;;14.27;100.00;100630.59;5003956;28;20050;-60
2023/06/17 00:06:11;;;;;;;6.50;5.70;;;;;;;14.28;100.00;100639.41;5005192;28;20815;-59
2023/06/17 00:08:38;;;;;;;6.43;5.82;;;;;;;14.28;100.00;100636.78;5006313;28;20145;-58
2023/06/17 00:11:05;;;;;;;6.10;5.50;;;;;;;14.23;100.00;100634.47;5009096;28;20080;-60
2023/06/17 00:13:33;;;;;;;10.52;6.05;;;;;;;14.20;100.00;100626.72;5007449;28;20536;-54
2023/06/17 00:16:00;;;;;;;7.50;5.80;;;;;;;14.19;100.00;100628.53;5008773;28;20088;-57
2023/06/17 00:18:28;;;;;;;7.95;6.22;;;;;;;14.17;100.00;100626.94;5009550;28;20069;-59
2023/06/17 00:20:57;;;;;;;7.55;6.80;;;;;;;14.16;100.00;100635.84;5007911;28;20073;-58
2023/06/17 00:23:25;;;;;;;9.57;5.88;;;;;;;14.13;100.00;100631.63;5007894;28;20060;-56
2023/06/17 00:25:52;;;;;;;8.23;6.05;;;;;;;14.12;100.00;100632.59;5007651;28;20346;-57
2023/06/17 00:28:19;;;;;;;6.40;5.70;;;;;;;14.13;100.00;100625.47;5008898;28;20062;-54
2023/06/17 00:30:47;;;;;;;7.15;6.10;;;;;;;14.13;100.00;100628.97;5006449;28;20049;-57
2023/06/17 00:33:15;;;;;;;8.30;5.57;;;;;;;14.15;100.00;100624.44;5000318;28;20101;-58
2023/06/17 00:35:42;;;;;;;6.68;5.90;;;;;;;14.19;100.00;100617.94;5006537;28;20176;-58
2023/06/17 00:38:09;;;;;;;7.45;5.72;;;;;;;14.23;100.00;100623.88;5018874;28;20058;-62
2023/06/17 00:40:37;;;;;;;7.35;5.82;;;;;;;14.25;100.00;100619.28;5007380;28;20061;-58
2023/06/17 00:43:04;;;;;;;7.60;5.43;;;;;;;14.26;100.00;100617.50;5005612;28;20532;-56
2023/06/17 00:45:38;;;;;;;7.43;6.10;;;;;;;14.28;100.00;100613.78;5005462;28;20133;-56
2023/06/17 00:48:10;;;;;;;10.65;6.43;;;;;;;14.29;100.00;100617.28;5003276;28;20076;-58
2023/06/17 00:50:37;;;;;;;7.97;6.22;;;;;;;14.30;100.00;100619.78;5004060;28;20053;-58
2023/06/17 00:53:06;;;;;;;8.02;5.43;;;;;;;14.29;100.00;100612.81;5006146;28;20145;-57
2023/06/17 00:55:33;;;;;;;8.80;6.90;;;;;;;14.30;100.00;100617.13;5003242;28;20509;-60
2023/06/17 00:58:01;;;;;;;7.78;6.00;;;;;;;14.31;100.00;100602.09;5007488;28;20072;-57
2023/06/17 01:00:28;;;;;;;8.35;5.95;;;;;;;14.33;100.00;100608.13;5001577;28;20058;-57
2023/06/17 01:02:56;;;;;;;6.47;5.78;;;;;;;14.36;100.00;100607.88;5005103;28;20153;-59
2023/06/17 01:05:24;;;;;;;8.07;6.65;;;;;;;14.37;100.00;100605.16;5001796;28;20050;-57
2023/06/17 01:07:56;;;;;;;7.35;6.45;;;;;;;14.39;100.00;100608.50;5001145;28;20053;-59
2023/06/17 01:10:58;;;;;;;6.60;5.78;;;;;;;14.39;100.00;100600.56;5004741;28;20049;-58
2023/06/17 01:13:27;;;;;;;7.13;5.72;;;;;;;14.40;100.00;100604.88;4944742;28;20145;-57
2023/06/17 01:15:54;;;;;;;7.85;6.43;;;;;;;14.40;100.00;100601.41;5000078;28;20137;-58
2023/06/17 01:18:22;;;;;;;7.65;6.57;;;;;;;14.39;100.00;100603.22;5019453;28;20148;-57
2023/06/17 01:20:53;;;;;;;7.47;6.55;;;;;;;14.40;100.00;100604.06;5001242;28;20053;-57
2023/06/17 01:23:23;;;;;;;7.80;6.32;;;;;;;14.40;100.00;100609.34;5017379;28;20049;-57
2023/06/17 01:25:51;;;;;;;12.07;7.82;;;;;;;14.40;100.00;100614.66;4985312;28;20056;-60
2023/06/17 01:28:19;;;;;;;11.00;6.40;;;;;;;14.41;100.00;100616.34;5006571;28;20122;-60
2023/06/17 01:30:56;;;;;;;13.15;6.85;;;;;;;14.41;100.00;100616.34;5020797;28;20136;-53
2023/06/17 01:33:25;;;;;;;6.97;6.28;;;;;;;14.41;100.00;100614.56;5005449;28;20052;-57
2023/06/17 01:36:03;;;;;;;8.80;6.10;;;;;;;14.39;100.00;100603.22;4986201;28;20112;-59
2023/06/17 01:38:35;;;;;;;9.18;7.72;;;;;;;14.31;100.00;100607.38;5005303;28;20072;-56
2023/06/17 01:41:10;;;;;;;9.90;8.10;;;;;;;14.22;100.00;100603.63;4985230;28;20085;-58
2023/06/17 01:43:39;;;;;;;11.23;7.72;;;;;;;14.18;100.00;100608.31;5006476;28;20145;-58
2023/06/17 01:46:07;;;;;;;12.50;7.80;;;;;;;14.13;100.00;100607.78;4991016;28;20515;-61
2023/06/17 01:48:34;;;;;;;9.30;7.97;;;;;;;14.09;100.00;100608.97;4983025;28;20078;-58
2023/06/17 01:51:02;;;;;;;14.00;9.10;;;;;;;14.08;100.00;100603.81;5001445;28;20142;-58
2023/06/17 01:53:29;;;;;;;9.68;8.38;;;;;;;14.06;100.00;100603.09;5007029;28;20085;-59
2023/06/17 01:55:57;;;;;;;11.30;8.27;;;;;;;14.03;100.00;100598.84;4994383;28;20064;-60
2023/06/17 01:58:24;;;;;;;9.93;7.82;;;;;;;14.04;100.00;100595.25;5007193;28;20132;-57
2023/06/17 02:00:51;;;;;;;11.43;8.27;;;;;;;14.06;100.00;100595.16;5007332;28;20058;-57
2023/06/17 02:03:19;;;;;;;10.68;8.00;;;;;;;14.10;100.00;100601.91;5002619;28;20053;-59
2023/06/17 02:05:46;;;;;;;13.43;8.13;;;;;;;14.10;100.00;100602.75;5003639;28;20054;-58
2023/06/17 02:08:14;;;;;;;11.82;7.95;;;;;;;14.11;100.00;100601.78;5005505;28;20141;-57
2023/06/17 02:10:42;;;;;;;8.57;7.65;;;;;;;14.13;100.00;100593.72;5005610;28;20402;-58
2023/06/17 02:13:09;;;;;;;13.43;8.13;;;;;;;14.14;100.00;100598.91;5009914;28;20137;-58
2023/06/17 02:15:38;;;;;;;10.70;7.05;;;;;;;14.18;100.00;100602.16;5021669;28;20073;-60
2023/06/17 02:18:06;;;;;;;12.75;8.85;;;;;;;14.21;100.00;100598.44;5012223;28;20077;-56
2023/06/17 02:20:34;;;;;;;11.27;8.35;;;;;;;14.23;100.00;100596.53;5007831;28;20153;-56
2023/06/17 02:23:01;;;;;;;12.00;8.35;;;;;;;14.23;100.00;100602.69;4985666;28;20069;-58
2023/06/17 02:25:28;;;;;;;11.25;9.15;;;;;;;14.24;100.00;100598.22;5009253;28;20034;-58
2023/06/17 02:27:56;;;;;;;12.43;7.80;;;;;;;14.25;100.00;100598.09;5008302;28;20149;-59
2023/06/17 02:31:12;;;;;;;12.80;8.07;;;;;;;14.28;100.00;100597.88;5007881;28;20048;-58
2023/06/17 02:33:39;;;;;;;12.20;7.97;;;;;;;14.30;100.00;100597.75;5005631;28;20447;-58
2023/06/17 02:36:07;;;;;;;10.73;8.48;;;;;;;14.30;100.00;100597.75;5009162;28;20080;-57
2023/06/17 02:38:34;;;;;;;13.07;9.13;;;;;;;14.30;100.00;100595.13;5006323;28;20532;-59
2023/06/17 02:41:01;;;;;;;8.30;7.50;;;;;;;14.30;100.00;100581.88;5006172;28;20065;-57
2023/06/17 02:43:29;;;;;;;11.05;7.95;;;;;;;14.31;100.00;100586.22;5005027;28;20945;-58
2023/06/17 02:45:57;;;;;;;9.68;8.02;;;;;;;14.31;100.00;100591.50;5008521;28;20114;-59
2023/06/17 02:48:24;;;;;;;13.18;8.55;;;;;;;14.31;100.00;100586.22;5010545;28;20054;-55
2023/06/17 02:50:53;;;;;;;9.85;7.55;;;;;;;14.32;100.00;100582.59;5005244;28;20050;-59
2023/06/17 02:53:21;;;;;;;10.80;9.13;;;;;;;14.32;100.00;100580.81;5008872;28;20160;-58
2023/06/17 02:55:49;;;;;;;11.45;8.38;;;;;;;14.33;100.00;100582.50;4998014;28;20435;-59
2023/06/17 02:58:18;;;;;;;10.30;7.47;;;;;;;14.34;100.00;100581.53;5010114;28;20053;-55
2023/06/17 03:00:46;;;;;;;12.65;8.23;;;;;;;14.33;100.00;100584.31;5006978;28;20072;-58
2023/06/17 03:03:14;;;;;;;11.52;8.95;;;;;;;14.31;100.00;100589.69;5007466;28;20148;-56
2023/06/17 03:05:41;;;;;;;14.18;8.23;;;;;;;14.31;100.00;100586.22;4999216;28;20068;-58
2023/06/17 03:08:09;;;;;;;11.45;8.40;;;;;;;14.32;100.00;100590.53;5005007;28;20149;-58
2023/06/17 03:10:36;;;;;;;13.25;9.65;;;;;;;14.34;100.00;100583.34;5005853;28;20064;-54
2023/06/17 03:13:03;;;;;;;16.30;9.05;;;;;;;14.33;100.00;100582.50;5010599;28;20058;-56
2023/06/17 03:15:30;;;;;;;11.18;8.95;;;;;;;14.34;100.00;100585.97;5008334;28;20072;-61
2023/06/17 03:17:57;;;;;;;13.63;9.10;;;;;;;14.33;100.00;100581.66;4986825;28;20450;-57
2023/06/17 03:20:28;;;;;;;12.52;9.25;;;;;;;14.33;100.00;100586.94;5003060;28;20070;-57
2023/06/17 03:22:55;;;;;;;12.20;8.68;;;;;;;14.32;100.00;100579.94;5006483;28;20068;-58
2023/06/17 03:25:23;;;;;;;12.90;10.00;;;;;;;14.30;100.00;100584.53;5007864;28;21047;-58
2023/06/17 03:27:50;;;;;;;9.95;8.93;;;;;;;14.31;100.00;100583.56;5008636;28;20050;-55
2023/06/17 03:30:19;;;;;;;10.75;8.45;;;;;;;14.33;100.00;100579.00;5007494;28;20111;-60
2023/06/17 03:32:47;;;;;;;14.82;9.52;;;;;;;14.36;100.00;100581.41;5006397;28;20125;-57
2023/06/17 03:35:14;;;;;;;11.18;9.57;;;;;;;14.39;100.00;100579.38;5009364;28;20053;-58
2023/06/17 03:37:41;;;;;;;14.32;9.73;;;;;;;14.44;100.00;100579.03;5004620;28;20073;-60
2023/06/17 03:40:09;;;;;;;13.23;8.50;;;;;;;14.48;100.00;100580.53;5007152;28;20519;-56
2023/06/17 03:42:36;;;;;;;10.85;9.75;;;;;;;14.52;100.00;100578.47;4990264;28;20108;-57
2023/06/17 03:45:04;;;;;;;12.27;9.15;;;;;;;14.55;100.00;100579.09;5004848;28;20057;-56
2023/06/17 03:47:31;;;;;;;12.10;10.43;;;;;;;14.56;100.00;100580.78;5008150;28;20072;-59
2023/06/17 03:49:59;;;;;;;9.68;8.65;;;;;;;14.57;100.00;100590.41;5007129;28;20037;-60
2023/06/17 03:52:26;;;;;;;11.02;8.70;;;;;;;14.57;100.00;100586.91;5006760;28;20064;-59
2023/06/17 03:54:54;;;;;;;11.32;9.57;;;;;;;14.56;100.00;100587.88;4999251;28;20052;-57
2023/06/17 03:57:21;;;;;;;9.23;8.30;;;;;;;14.56;100.00;100594.03;5005845;28;20125;-57
2023/06/17 03:59:49;;;;;;;11.02;8.32;;;;;;;14.62;100.00;100598.00;5007830;28;20137;-56
2023/06/17 04:02:16;;;;;;;11.75;9.80;;;;;;;14.65;100.00;100598.63;5001405;28;20421;-56
2023/06/17 04:04:43;;;;;;;11.25;8.95;;;;;;;14.68;100.00;100592.25;5007743;28;20097;-57
2023/06/17 04:07:11;;;;;;;10.77;8.98;;;;;;;14.73;100.00;100598.06;5008670;28;20064;-61
2023/06/17 04:09:38;;;;;;;11.75;9.65;;;;;;;14.77;100.00;100598.63;5005243;28;20531;-58
2023/06/17 04:12:17;;;;;;;13.70;9.45;;;;;;;14.83;100.00;100592.88;5006220;28;20136;-59
2023/06/17 04:14:44;;;;;;;10.75;9.57;;;;;;;14.88;100.00;100593.38;5006434;28;20521;-59
2023/06/17 04:17:12;;;;;;;11.52;9.23;;;;;;;14.89;100.00;100595.88;5013653;28;20527;-59
2023/06/17 04:19:39;;;;;;;11.73;8.68;;;;;;;14.92;100.00;100590.34;5007809;28;20056;-56
2023/06/17 04:22:06;;;;;;;14.98;9.77;;;;;;;14.93;100.00;100589.38;5007879;28;20057;-64
2023/06/17 04:24:33;;;;;;;12.65;10.52;;;;;;;14.95;100.00;100589.28;5008354;28;20537;-60
2023/06/17 04:27:02;;;;;;;11.30;9.43;;;;;;;14.97;100.00;100597.94;5003633;28;20049;-56
2023/06/17 04:29:29;;;;;;;12.63;10.55;;;;;;;15.00;100.00;100596.88;5005594;28;20533;-59
2023/06/17 04:31:57;;;;;;;13.20;10.23;;;;;;;15.00;100.00;100595.06;5007597;28;20240;-55
2023/06/17 04:34:26;;;;;;;11.40;9.95;;;;;;;15.06;100.00;100601.69;5003596;28;20050;-59
2023/06/17 04:36:59;;;;;;;11.60;9.95;;;;;;;15.12;100.00;100596.75;4989499;28;20045;-56
2023/06/17 04:39:26;;;;;;;12.65;11.05;;;;;;;15.16;100.00;100595.53;5007125;28;20096;-60
2023/06/17 04:41:54;;;;;;;13.68;10.70;;;;;;;15.25;100.00;100601.09;5007215;28;20145;-57
2023/06/17 04:44:22;;;;;;;14.88;11.40;;;;;;;15.33;100.00;100594.22;4990265;28;20054;-59
2023/06/17 04:46:49;;;;;;;13.43;12.02;;;;;;;15.42;100.00;100600.59;5006233;28;20041;-59
2023/06/17 04:49:17;;;;;;;12.70;11.43;;;;;;;15.51;100.00;100605.19;5007280;28;20434;-56
2023/06/17 04:52:11;;;;;;;14.35;11.38;;;;;;;15.60;100.00;100604.44;4974248;28;20061;-59
2023/06/17 04:58:04;;;;;;;15.80;12.32;;;;;;;15.74;100.00;100607.81;5007738;28;20083;-57
2023/06/17 05:00:31;;;;;;;13.23;11.40;;;;;;;15.82;100.00;100602.75;5006696;28;20184;-57
2023/06/17 05:02:58;;;;;;;12.95;11.60;;;;;;;15.88;100.00;100604.88;5003284;28;20060;-55
2023/06/17 05:05:26;;;;;;;13.73;12.38;;;;;;;15.95;100.00;100600.78;4989018;28;20567;-57
2023/06/17 05:07:53;;;;;;;16.10;14.50;;;;;;;16.01;100.00;100602.91;5002552;28;20090;-54
2023/06/17 05:10:20;;;;;;;14.23;12.60;;;;;;;16.07;100.00;100615.69;5007033;28;20045;-60
2023/06/17 05:12:47;;;;;;;17.58;12.52;;;;;;;16.13;100.00;100607.22;5007040;28;20058;-59
2023/06/17 05:15:15;;;;;;;16.83;12.38;;;;;;;16.16;100.00;100606.97;5006087;28;20081;-56
2023/06/17 05:17:42;;;;;;;13.80;12.43;;;;;;;16.15;100.00;100607.94;5006655;28;20136;-57
2023/06/17 05:20:11;;;;;;;13.38;12.07;;;;;;;16.18;100.00;100607.69;5005821;28;20114;-59
2023/06/17 05:22:38;;;;;;;14.55;13.02;;;;;;;16.25;100.00;100601.84;5006146;28;20631;-56
2023/06/17 05:25:06;;;;;;;14.45;11.65;;;;;;;16.34;100.00;100612.56;5007306;28;20062;-57
2023/06/17 05:27:33;;;;;;;13.43;11.52;;;;;;;16.46;100.00;100606.22;5004389;28;20085;-57
2023/06/17 05:30:01;;;;;;;12.93;11.63;;;;;;;16.60;100.00;100609.53;5007294;28;20068;-57
2023/06/17 05:32:28;;;;;;;12.63;10.00;;;;;;;16.65;100.00;100607.34;4987177;28;20370;-59
2023/06/17 05:34:55;;;;;;;12.48;10.70;;;;;;;16.71;100.00;100606.84;5003146;28;20079;-58
2023/06/17 05:37:22;;;;;;;13.05;11.02;;;;;;;16.74;100.00;100611.91;5006789;28;20277;-58
2023/06/17 05:39:50;;;;;;;12.85;11.55;;;;;;;16.81;100.00;100604.25;4988775;28;20061;-61
2023/06/17 05:42:17;;;;;;;11.90;10.60;;;;;;;16.84;100.00;100609.28;5006464;28;20064;-56
2023/06/17 05:44:44;;;;;;;15.65;10.95;;;;;;;16.88;100.00;100611.56;5005294;28;20056;-59
2023/06/17 05:47:12;;;;;;;15.05;10.50;;;;;;;16.91;100.00;100616.63;5009189;28;20466;-59
2023/06/17 05:49:39;;;;;;;14.85;10.77;;;;;;;16.91;100.00;100619.28;5006930;28;20565;-57
2023/06/17 05:52:07;;;;;;;11.77;10.57;;;;;;;16.94;99.57;100615.53;5006291;28;20102;-55
2023/06/17 05:54:34;;;;;;;11.88;10.65;;;;;;;16.95;99.08;100615.38;5011103;28;20054;-59
2023/06/17 05:57:01;;;;;;;12.93;10.13;;;;;;;17.01;98.39;100613.19;5009381;28;20149;-55
2023/06/17 05:59:29;;;;;;;12.57;11.25;;;;;;;17.08;97.99;100611.69;5010449;28;20080;-56
2023/06/17 06:01:57;;;;;;;18.38;11.43;;;;;;;17.12;97.36;100613.94;5007691;28;20141;-57
2023/06/17 06:04:24;;;;;;;11.25;10.00;;;;;;;17.16;97.14;100620.69;5009774;28;20061;-58
2023/06/17 06:06:51;;;;;;;14.65;10.98;;;;;;;17.19;97.02;100633.69;5009131;28;20060;-60
2023/06/17 06:09:19;;;;;;;14.55;11.30;;;;;;;17.23;96.73;100631.63;5010565;28;20149;-58
2023/06/17 06:11:46;;;;;;;13.25;11.82;;;;;;;17.19;96.44;100631.03;5011168;28;20180;-59
2023/06/17 06:14:14;;;;;;;11.50;10.30;;;;;;;17.25;96.48;100632.34;5011533;28;20397;-59
2023/06/17 06:16:45;;;;;;;14.38;12.75;;;;;;;17.21;95.59;100631.78;5005348;28;20057;-55
2023/06/17 06:19:12;;;;;;;14.40;12.98;;;;;;;17.11;95.63;100630.88;5004411;28;20085;-56
2023/06/17 06:21:40;;;;;;;15.45;12.85;;;;;;;17.09;96.06;100631.97;5005355;28;20068;-57
2023/06/17 06:24:07;;;;;;;15.73;12.45;;;;;;;17.13;96.36;100636.06;5005944;28;20064;-54
2023/06/17 06:26:34;;;;;;;12.70;11.40;;;;;;;17.20;96.13;100629.22;5004051;28;20423;-58
2023/06/17 06:29:01;;;;;;;13.15;11.82;;;;;;;17.29;96.08;100635.56;4986138;28;20050;-57
2023/06/17 06:31:29;;;;;;;14.68;11.95;;;;;;;17.36;96.05;100634.91;5007787;28;20535;-53
2023/06/17 06:33:56;;;;;;;14.70;12.48;;;;;;;17.41;95.10;100640.66;5010049;28;20068;-59
2023/06/17 06:36:23;;;;;;;17.13;13.48;;;;;;;17.44;94.76;100642.22;5003761;28;20499;-55
2023/06/17 06:38:51;;;;;;;13.20;11.85;;;;;;;17.48;94.69;100643.66;5006893;28;20060;-59
2023/06/17 06:41:18;;;;;;;13.35;11.98;;;;;;;17.62;94.36;100640.63;5001085;28;20145;-57
2023/06/17 06:43:46;;;;;;;13.48;11.88;;;;;;;17.72;93.80;100641.47;5006360;28;20150;-58
2023/06/17 06:46:13;;;;;;;13.25;11.95;;;;;;;17.78;92.79;100633.94;5009990;28;20046;-59
2023/06/17 06:48:42;;;;;;;13.32;12.05;;;;;;;17.81;92.35;100637.19;5010503;28;20588;-57
2023/06/17 06:51:09;;;;;;;13.95;12.40;;;;;;;17.90;92.02;100640.84;5008915;28;20062;-57
2023/06/17 06:53:37;;;;;;;17.45;12.07;;;;;;;17.99;91.44;100648.00;5005239;28;20057;-59
2023/06/17 06:56:04;;;;;;;15.15;11.35;;;;;;;18.05;91.18;100650.13;5008461;28;20137;-56
2023/06/17 06:58:32;;;;;;;14.05;11.90;;;;;;;18.18;91.16;100647.19;5010842;28;20053;-58
2023/06/17 07:01:02;;;;;;;14.25;11.27;;;;;;;18.30;90.85;100653.25;5008922;28;20062;-57
2023/06/17 07:03:30;;;;;;;13.52;12.10;;;;;;;18.35;90.01;100651.00;5004103;28;20443;-60
2023/06/17 07:05:57;;;;;;;12.77;11.48;;;;;;;18.44;89.69;100652.81;5006967;28;20145;-59
2023/06/17 07:08:24;;;;;;;11.65;10.45;;;;;;;18.60;89.45;100655.78;5008647;28;20118;-56
2023/06/17 07:10:52;;;;;;;12.18;10.80;;;;;;;18.75;88.71;100655.38;5007158;28;20092;-58
2023/06/17 07:13:19;;;;;;;16.60;11.95;;;;;;;18.77;87.68;100651.56;5008027;28;20581;-58
2023/06/17 07:15:46;;;;;;;15.57;10.52;;;;;;;18.83;87.65;100650.16;5010735;28;20061;-60
2023/06/17 07:18:14;;;;;;;12.25;10.95;;;;;;;18.88;87.45;100659.41;5004844;28;20849;-60
2023/06/17 07:20:42;;;;;;;11.85;10.65;;;;;;;18.85;86.97;100648.19;5008202;28;20054;-61
2023/06/17 07:23:09;;;;;;;17.25;11.57;;;;;;;18.85;86.88;100653.53;5009124;28;20053;-58
2023/06/17 07:25:37;;;;;;;13.00;11.60;;;;;;;18.85;86.52;100657.03;5009869;28;20161;-58
2023/06/17 07:28:05;;;;;;;14.00;12.60;;;;;;;18.86;86.60;100655.19;5002742;28;20053;-59
2023/06/17 07:30:32;;;;;;;13.60;12.20;;;;;;;18.82;86.45;100653.78;5005630;28;20153;-58
2023/06/17 07:33:00;;;;;;;15.77;13.23;;;;;;;18.67;86.24;100656.88;5004061;28;20111;-58
2023/06/17 07:35:28;;;;;;;15.45;12.65;;;;;;;18.60;86.74;100655.78;5001581;28;20090;-58
2023/06/17 07:37:56;;;;;;;13.77;12.15;;;;;;;18.64;86.91;100654.50;5015644;28;20501;-61
2023/06/17 07:40:23;;;;;;;15.45;12.10;;;;;;;18.68;86.12;100657.72;5010766;28;20077;-59
2023/06/17 07:42:51;;;;;;;13.18;11.85;;;;;;;18.63;85.63;100651.97;5007957;28;20137;-59
2023/06/17 07:45:18;;;;;;;12.73;11.45;;;;;;;18.65;85.67;100658.03;5006255;28;20056;-57
2023/06/17 07:47:46;;;;;;;15.32;12.63;;;;;;;18.86;85.97;100660.53;5004501;28;20553;-58
2023/06/17 07:50:13;;;;;;;14.02;12.52;;;;;;;19.07;85.15;100655.84;5005955;28;20219;-57
2023/06/17 07:52:40;;;;;;;14.15;12.65;;;;;;;19.11;84.44;100653.75;5007696;28;20057;-57
2023/06/17 07:55:08;;;;;;;14.98;12.65;;;;;;;19.15;84.14;100655.97;5007663;28;20137;-57
2023/06/17 07:57:36;;;;;;;12.85;11.63;;;;;;;19.22;84.44;100661.56;5004237;28;20072;-58
2023/06/17 08:00:14;;;;;;;13.73;12.15;;;;;;;19.32;84.02;100664.19;5006981;28;20049;-59
2023/06/17 08:02:41;;;;;;;12.68;11.38;;;;;;;19.44;83.43;100655.88;5007547;28;20615;-57
2023/06/17 08:05:09;;;;;;;17.73;13.48;;;;;;;19.53;82.73;100661.31;5008923;28;20057;-53
2023/06/17 08:07:37;;;;;;;13.57;11.85;;;;;;;19.52;82.04;100657.81;5006043;28;20156;-59
2023/06/17 08:10:04;;;;;;;11.75;10.48;;;;;;;19.48;81.88;100656.41;5003221;28;20048;-59
2023/06/17 08:12:35;;;;;;;11.93;10.13;;;;;;;19.47;81.93;100654.75;5006454;28;20144;-58
2023/06/17 08:15:03;;;;;;;10.93;9.93;;;;;;;19.47;82.09;100657.41;5003306;28;20141;-58
2023/06/17 08:17:30;;;;;;;12.60;11.30;;;;;;;19.57;81.91;100662.72;5004712;28;20133;-56
2023/06/17 08:19:58;;;;;;;12.52;10.65;;;;;;;19.74;81.18;100656.63;5000807;28;20064;-57
2023/06/17 08:22:25;;;;;;;9.85;8.95;;;;;;;20.05;80.24;100659.81;5000713;28;20056;-59
2023/06/17 08:24:52;;;;;;;11.43;10.10;;;;;;;20.40;78.80;100648.28;5002057;28;20071;-58
2023/06/17 08:27:19;;;;;;;11.20;9.38;;;;;;;20.73;77.04;100660.13;5003890;28;20671;-56
2023/06/17 08:29:47;;;;;;;11.68;9.63;;;;;;;20.97;75.25;100658.63;5003221;28;20064;-58
2023/06/17 08:32:14;;;;;;;13.43;10.25;;;;;;;21.08;74.03;100660.22;5002993;28;20064;-59
2023/06/17 08:34:41;;;;;;;12.35;11.07;;;;;;;20.91;72.82;100667.28;5005403;28;20054;-59
2023/06/17 08:37:09;;;;;;;10.68;9.57;;;;;;;20.82;73.88;100671.75;4998771;28;20094;-57
2023/06/17 08:39:39;;;;;;;11.35;10.25;;;;;;;20.65;73.68;100669.91;5004638;28;20892;-57
2023/06/17 08:42:08;;;;;;;10.45;9.25;;;;;;;20.42;74.43;100669.53;5002204;28;20152;-56
2023/06/17 08:44:38;;;;;;;13.40;9.80;;;;;;;20.52;74.68;100672.16;5005663;28;20068;-57
2023/06/17 08:47:06;;;;;;;13.68;9.57;;;;;;;20.60;74.30;100673.06;5003602;28;20830;-57
2023/06/17 08:49:34;;;;;;;10.07;9.07;;;;;;;20.66;73.93;100669.75;5004997;28;20081;-57
2023/06/17 08:52:02;;;;;;;11.70;10.07;;;;;;;20.84;73.38;100671.56;5003463;28;20160;-59
2023/06/17 08:54:31;;;;;;;11.95;9.63;;;;;;;20.95;73.01;100672.16;5003121;28;20141;-57
2023/06/17 08:56:59;;;;;;;12.65;10.13;;;;;;;20.99;72.19;100672.69;4986747;28;20056;-59
2023/06/17 08:59:26;;;;;;;11.77;9.35;;;;;;;20.98;71.65;100669.19;5007894;28;20054;-57
2023/06/17 09:01:53;;;;;;;10.45;9.43;;;;;;;21.14;71.40;100673.81;5003877;28;20050;-58
2023/06/17 09:04:22;;;;;;;9.90;8.65;;;;;;;21.36;71.38;100672.47;5007485;28;20045;-57
2023/06/17 09:06:51;;;;;;;12.55;9.60;;;;;;;21.49;71.09;100672.88;5006915;28;20441;-58
2023/06/17 09:09:18;;;;;;;9.77;8.50;;;;;;;21.67;70.66;100674.63;5005063;28;20076;-57
2023/06/17 09:11:53;;;;;;;11.45;8.40;;;;;;;21.90;69.70;100678.38;5006806;28;20058;-57
2023/06/17 09:14:27;;;;;;;8.97;8.07;;;;;;;21.93;68.36;100680.75;5003992;28;20100;-56
2023/06/17 09:16:54;;;;;;;12.30;9.18;;;;;;;22.00;68.14;100680.91;5007438;28;20082;-58
2023/06/17 09:19:22;;;;;;;9.18;8.13;;;;;;;22.17;67.88;100677.31;5007838;28;20041;-57
2023/06/17 09:21:50;;;;;;;9.20;8.30;;;;;;;22.19;67.45;100680.66;4988000;28;20054;-57
2023/06/17 09:24:17;;;;;;;9.35;8.45;;;;;;;22.15;67.53;100690.03;5001925;28;20166;-61
2023/06/17 09:26:45;;;;;;;13.23;9.63;;;;;;;22.12;67.39;100687.69;5006925;28;20050;-56
2023/06/17 09:29:13;;;;;;;8.98;8.18;;;;;;;22.18;67.45;100683.50;5003367;28;20050;-55
2023/06/17 09:31:48;;;;;;;10.52;9.55;;;;;;;22.07;67.13;100689.16;5004056;28;20066;-58
2023/06/17 09:34:15;;;;;;;13.48;9.82;;;;;;;22.07;67.68;100687.31;5001601;28;20514;-59
2023/06/17 09:36:43;;;;;;;12.52;10.20;;;;;;;21.98;66.99;100694.50;5006277;28;20107;-54
2023/06/17 09:39:12;;;;;;;8.98;8.25;;;;;;;21.94;67.49;100687.78;5004918;28;21346;-58
2023/06/17 09:41:40;;;;;;;10.90;8.55;;;;;;;21.89;68.10;100686.59;5020480;28;20068;-54
2023/06/17 09:44:07;;;;;;;14.40;8.50;;;;;;;21.87;68.86;100680.53;5002785;28;20605;-57
2023/06/17 09:46:36;;;;;;;9.85;8.85;;;;;;;21.92;69.22;100681.72;5007439;28;20077;-57
2023/06/17 09:49:07;;;;;;;12.98;9.07;;;;;;;21.99;69.10;100672.03;5004835;28;20116;-59
2023/06/17 09:51:38;;;;;;;11.85;8.75;;;;;;;22.13;69.15;100685.84;5002022;28;20064;-55
2023/06/17 09:54:06;;;;;;;10.18;9.02;;;;;;;22.27;68.49;100681.69;4997096;28;20053;-57
2023/06/17 09:56:35;;;;;;;9.88;9.07;;;;;;;22.46;67.17;100684.06;5000279;28;20141;-59
2023/06/17 09:59:03;;;;;;;11.32;9.60;;;;;;;22.64;66.29;100686.59;4997616;28;20068;-59
2023/06/17 10:01:30;;;;;;;12.32;9.18;;;;;;;22.80;65.76;100691.97;5003564;28;20129;-56
2023/06/17 10:04:01;;;;;;;12.57;7.85;;;;;;;22.80;65.86;100683.91;4992329;28;20652;-57
2023/06/17 10:06:30;;;;;;;10.52;8.75;;;;;;;22.79;65.02;100684.09;4999290;28;20058;-56
2023/06/17 10:09:00;;;;;;;9.27;8.32;;;;;;;22.83;65.39;100682.72;4983065;28;20050;-60
2023/06/17 10:11:27;;;;;;;11.35;7.88;;;;;;;22.97;64.95;100690.16;4982112;28;20489;-60
2023/06/17 10:14:10;;;;;;;8.98;7.03;;;;;;;23.13;64.34;100676.69;4985289;28;20478;-61
2023/06/17 10:16:40;;;;;;;9.73;7.90;;;;;;;23.34;63.89;100675.31;5008127;28;20054;-60
2023/06/17 10:19:15;;;;;;;9.40;8.30;;;;;;;23.41;63.11;100678.97;5008485;28;20161;-59
2023/06/17 10:21:44;;;;;;;9.05;7.50;;;;;;;23.53;62.68;100674.91;4983405;28;20084;-56
2023/06/17 10:24:13;;;;;;;9.40;7.90;;;;;;;23.46;62.13;100676.59;4982631;28;20164;-55
2023/06/17 10:26:40;;;;;;;10.73;7.57;;;;;;;23.55;61.62;100672.03;5019139;28;20054;-56
2023/06/17 10:29:10;;;;;;;8.98;8.05;;;;;;;23.39;61.59;100679.16;5003773;28;20096;-59
2023/06/17 10:31:42;;;;;;;12.85;6.97;;;;;;;23.31;61.55;100675.63;5003153;28;20061;-59
2023/06/17 10:34:19;;;;;;;8.70;7.90;;;;;;;23.30;61.17;100684.72;5005266;28;20063;-57
2023/06/17 10:36:51;;;;;;;9.05;8.15;;;;;;;23.24;61.64;100684.41;4985934;28;20081;-59
2023/06/17 10:39:19;;;;;;;7.93;6.78;;;;;;;23.46;61.32;100676.59;5005439;28;20057;-58
2023/06/17 10:41:55;;;;;;;9.57;7.07;;;;;;;23.94;60.61;100672.06;5001858;28;20060;-57
2023/06/17 10:44:35;;;;;;;11.02;8.63;;;;;;;24.37;59.35;100662.59;5005201;28;20042;-57
2023/06/17 10:47:05;;;;;;;13.30;8.27;;;;;;;24.44;57.37;100665.38;5004726;28;20061;-60
2023/06/17 10:49:38;;;;;;;8.75;7.95;;;;;;;24.49;57.07;100658.44;5019290;28;20050;-55
2023/06/17 10:52:11;;;;;;;10.05;8.13;;;;;;;24.80;57.42;100665.59;5005478;28;20134;-57
2023/06/17 10:54:49;;;;;;;8.93;8.13;;;;;;;25.02;54.29;100666.56;4980847;28;20050;-57
2023/06/17 10:57:28;;;;;;;9.40;7.38;;;;;;;25.17;55.10;100667.47;5006045;28;20143;-58
2023/06/17 10:59:58;;;;;;;9.88;6.72;;;;;;;25.60;54.86;100658.72;5003507;28;20526;-60
2023/06/17 11:02:26;;;;;;;7.75;6.78;;;;;;;26.02;52.62;100658.00;5000380;28;20056;-59
2023/06/17 11:04:56;;;;;;;7.47;6.22;;;;;;;26.34;51.78;100661.25;5004840;28;20049;-57
2023/06/17 11:07:26;;;;;;;6.82;6.13;;;;;;;26.75;50.41;100650.66;5000537;28;20122;-58
2023/06/17 11:09:53;;;;;;;6.28;5.68;;;;;;;27.00;49.00;100640.25;4984305;28;20502;-59
2023/06/17 11:12:21;;;;;;;6.65;6.05;;;;;;;27.23;48.13;100637.28;5003504;28;20124;-57
2023/06/17 11:14:48;;;;;;;5.97;5.47;;;;;;;27.53;48.30;100640.59;5002504;28;20045;-59
2023/06/17 11:17:15;;;;;;;6.85;6.07;;;;;;;27.81;47.32;100642.38;5007947;28;20048;-58
2023/06/17 11:19:43;;;;;;;6.65;5.22;;;;;;;28.03;46.21;100635.78;4999239;28;20108;-59
2023/06/17 11:22:11;;;;;;;6.88;5.55;;;;;;;28.03;45.95;100633.09;5003743;28;20112;-57